createdAt,value
2022-12-11T00:02:32.969Z,102431.75
2022-12-11T00:07:36.110Z,102443.06
2022-12-11T00:12:39.320Z,102404.69
2022-12-11T00:17:42.697Z,102434.81
2022-12-11T00:22:45.777Z,102425.34
2022-12-11T00:27:49.043Z,102425.41
2022-12-11T00:32:52.695Z,102407.25
2022-12-11T00:37:55.798Z,102416.31
2022-12-11T00:42:59.153Z,102379.56
2022-12-11T00:48:02.964Z,102382.19
2022-12-11T00:53:06.924Z,102398.88
2022-12-11T00:58:11.700Z,102400.47
2022-12-11T01:03:16.438Z,102398.06
2022-12-11T01:08:19.634Z,102388.19
2022-12-11T01:13:22.727Z,102389.16
2022-12-11T01:18:27.626Z,102374.63
2022-12-11T01:23:30.692Z,102348.06
2022-12-11T01:28:33.880Z,102361.81
2022-12-11T01:33:37.586Z,102361.63
2022-12-11T01:38:41.017Z,102373.72
2022-12-11T01:44:07.615Z,102364.13
2022-12-11T01:49:15.543Z,102366.75
2022-12-11T01:54:21.925Z,102366.84
2022-12-11T01:59:30.003Z,102354.84
2022-12-11T02:04:35.115Z,102354.13
2022-12-11T02:09:41.787Z,102325.00
2022-12-11T02:15:17.577Z,102370.00
2022-12-11T02:20:31.237Z,102363.22
2022-12-11T02:26:04.955Z,102383.53
2022-12-11T02:31:15.013Z,102355.44
2022-12-11T02:36:21.763Z,102379.91
2022-12-11T02:41:26.759Z,102361.91
2022-12-11T02:46:31.489Z,102396.09
2022-12-11T02:51:39.984Z,102374.75
2022-12-11T02:56:51.904Z,102395.38
2022-12-11T03:01:54.982Z,102404.38
2022-12-11T03:07:12.388Z,102411.78
2022-12-11T03:12:21.250Z,102375.94
2022-12-11T03:17:29.514Z,102371.84
2022-12-11T03:22:41.407Z,102357.88
2022-12-11T03:27:56.004Z,102393.19
2022-12-11T03:33:07.182Z,102378.50
2022-12-11T03:38:25.186Z,102383.69
2022-12-11T03:43:32.321Z,102377.41
2022-12-11T03:48:41.716Z,102391.97
2022-12-11T03:53:46.275Z,102386.53
2022-12-11T03:58:49.338Z,102377.91
2022-12-11T04:03:52.391Z,102390.09
2022-12-11T04:08:55.754Z,102361.47
2022-12-11T04:14:17.427Z,102379.59
2022-12-11T04:19:39.661Z,102344.38
2022-12-11T04:24:43.081Z,102353.91
2022-12-11T04:29:46.169Z,102368.03
2022-12-11T04:34:49.222Z,102354.63
2022-12-11T04:39:52.399Z,102362.25
2022-12-11T04:44:55.551Z,102369.34
2022-12-11T04:49:58.652Z,102366.69
2022-12-11T04:55:01.814Z,102332.81
2022-12-11T05:00:08.320Z,102381.84
2022-12-11T05:05:11.747Z,102342.19
2022-12-11T05:10:15.047Z,102350.09
2022-12-11T05:15:18.415Z,102358.03
2022-12-11T05:20:21.452Z,102345.75
2022-12-11T05:25:24.737Z,102372.16
2022-12-11T05:30:27.791Z,102372.34
2022-12-11T05:35:30.843Z,102370.97
2022-12-11T05:40:33.916Z,102358.97
2022-12-11T05:45:37.513Z,102383.22
2022-12-11T05:50:40.537Z,102347.13
2022-12-11T05:55:43.703Z,102352.63
2022-12-11T06:00:48.352Z,102363.59
2022-12-11T06:05:51.602Z,102387.75
2022-12-11T06:10:54.832Z,102350.38
2022-12-11T06:16:03.387Z,102357.22
2022-12-11T06:21:19.065Z,102381.34
2022-12-11T06:26:22.933Z,102367.16
2022-12-11T06:31:26.106Z,102339.69
2022-12-11T06:36:29.318Z,102389.50
2022-12-11T06:41:32.423Z,102397.75
2022-12-11T06:46:36.021Z,102379.88
2022-12-11T06:51:40.098Z,102389.75
2022-12-11T06:56:43.293Z,102387.63
2022-12-11T07:01:46.603Z,102395.19
2022-12-11T07:06:49.707Z,102394.16
2022-12-11T07:11:53.849Z,102400.41
2022-12-11T07:16:57.687Z,102398.88
2022-12-11T07:22:00.805Z,102408.59
2022-12-11T07:27:05.207Z,102403.66
2022-12-11T07:32:08.407Z,102405.13
2022-12-11T07:37:11.541Z,102424.13
2022-12-11T07:42:14.683Z,102407.06
2022-12-11T07:47:17.815Z,102404.41
2022-12-11T07:52:21.235Z,102410.53
2022-12-11T07:57:24.390Z,102405.38
2022-12-11T08:02:29.234Z,102391.09
2022-12-11T08:07:36.475Z,102378.03
2022-12-11T08:12:39.618Z,102383.94
2022-12-11T08:17:42.716Z,102363.25
2022-12-11T08:22:45.803Z,102375.09
2022-12-11T08:27:50.224Z,102361.13
2022-12-11T08:32:53.408Z,102360.22
2022-12-11T08:37:56.475Z,102347.59
2022-12-11T08:42:59.585Z,102357.06
2022-12-11T08:48:02.685Z,102358.75
2022-12-11T08:53:05.828Z,102332.53
2022-12-11T08:58:08.989Z,102343.31
2022-12-11T09:03:13.037Z,102359.75
2022-12-11T09:08:16.513Z,102308.75
2022-12-11T09:13:19.735Z,102355.47
2022-12-11T09:18:22.833Z,102353.53
2022-12-11T09:23:25.979Z,102340.16
2022-12-11T09:28:29.271Z,102341.75
2022-12-11T09:33:32.281Z,102341.97
2022-12-11T09:38:36.723Z,102345.44
2022-12-11T09:43:47.463Z,102344.16
2022-12-11T09:48:51.387Z,102338.13
2022-12-11T09:53:57.892Z,102323.78
2022-12-11T09:59:32.484Z,102309.03
2022-12-11T10:05:04.731Z,102301.94
2022-12-11T10:10:17.895Z,102332.81
2022-12-11T10:15:40.988Z,102328.72
2022-12-11T10:20:45.609Z,102324.78
2022-12-11T10:25:55.311Z,102330.66
2022-12-11T10:31:11.325Z,102276.69
2022-12-11T10:36:20.690Z,102345.81
2022-12-11T10:41:34.160Z,102331.19
2022-12-11T10:46:37.596Z,102333.75
2022-12-11T10:51:40.809Z,102351.00
2022-12-11T10:56:48.978Z,102334.38
2022-12-11T11:01:52.190Z,102342.34
2022-12-11T11:07:21.890Z,102325.06
2022-12-11T11:12:27.910Z,102321.50
2022-12-11T11:17:35.337Z,102322.75
2022-12-11T11:22:47.055Z,102330.56
2022-12-11T11:28:00.536Z,102332.78
2022-12-11T11:33:14.184Z,102329.53
2022-12-11T11:38:20.421Z,102340.13
2022-12-11T11:43:47.083Z,102351.88
2022-12-11T11:49:27.262Z,102339.09
2022-12-11T11:54:57.975Z,102296.03
2022-12-11T12:00:21.067Z,102368.38
2022-12-11T12:05:29.922Z,102378.09
2022-12-11T12:10:54.583Z,102359.19
2022-12-11T12:16:00.493Z,102358.00
2022-12-11T12:21:27.830Z,102370.56
2022-12-11T12:26:37.615Z,102363.72
2022-12-11T12:32:05.560Z,102383.09
2022-12-11T12:37:36.662Z,102385.28
2022-12-11T12:42:45.964Z,102383.09
2022-12-11T12:47:53.422Z,102387.88
2022-12-11T12:52:57.752Z,102398.72
2022-12-11T12:58:06.934Z,102387.50
2022-12-11T13:03:33.213Z,102398.34
2022-12-11T13:08:52.072Z,102394.09
2022-12-11T13:14:28.276Z,102368.06
2022-12-11T13:19:39.058Z,102404.34
2022-12-11T13:25:02.149Z,102403.59
2022-12-11T13:30:21.647Z,102393.06
2022-12-11T13:35:24.957Z,102408.81
2022-12-11T13:40:33.440Z,102421.56
2022-12-11T13:46:13.940Z,102422.00
2022-12-11T13:51:20.324Z,102385.22
2022-12-11T13:56:23.463Z,102398.81
2022-12-11T14:01:35.181Z,102431.56
2022-12-11T14:06:40.512Z,102416.16
2022-12-11T14:11:43.990Z,102379.97
2022-12-11T14:16:52.478Z,102410.59
2022-12-11T14:22:05.954Z,102396.88
2022-12-11T14:27:18.195Z,102383.16
2022-12-11T14:32:35.577Z,102388.31
2022-12-11T14:37:39.535Z,102368.63
2022-12-11T14:43:00.171Z,102378.50
2022-12-11T14:48:15.581Z,102381.53
2022-12-11T14:53:25.041Z,102406.25
2022-12-11T14:58:28.863Z,102384.06
2022-12-11T15:03:35.900Z,102401.22
2022-12-11T15:08:39.017Z,102391.75
2022-12-11T15:13:58.828Z,102371.09
2022-12-11T15:19:02.530Z,102366.44
2022-12-11T15:24:07.360Z,102388.78
2022-12-11T15:29:33.267Z,102407.34
2022-12-11T15:34:45.747Z,102413.34
2022-12-11T15:39:49.306Z,102402.53
2022-12-11T15:44:55.776Z,102431.25
2022-12-11T15:50:01.109Z,102433.53
2022-12-11T15:55:06.170Z,102430.66
2022-12-11T16:00:14.694Z,102441.09
2022-12-11T16:05:18.173Z,102439.78
2022-12-11T16:10:22.646Z,102441.75
2022-12-11T16:15:27.236Z,102420.94
2022-12-11T16:20:31.497Z,102447.00
2022-12-11T16:25:34.927Z,102427.31
2022-12-11T16:30:38.494Z,102429.75
2022-12-11T16:35:43.134Z,102418.66
2022-12-11T16:40:46.384Z,102416.72
2022-12-11T16:45:56.292Z,102407.84
2022-12-11T16:50:59.497Z,102413.16
2022-12-11T16:56:03.056Z,102370.69
2022-12-11T17:01:13.834Z,102420.16
2022-12-11T17:06:18.304Z,102412.31
2022-12-11T17:11:25.146Z,102364.53
2022-12-11T17:16:32.618Z,102415.84
2022-12-11T17:21:35.674Z,102404.66
2022-12-11T17:26:42.234Z,102398.63
2022-12-11T17:31:45.687Z,102401.09
2022-12-11T17:36:48.843Z,102381.91
2022-12-11T17:41:52.058Z,102381.47
2022-12-11T17:46:55.280Z,102359.16
2022-12-11T17:51:58.340Z,102388.97
2022-12-11T17:57:01.981Z,102392.47
2022-12-11T18:02:05.207Z,102395.22
2022-12-11T18:07:08.291Z,102390.41
2022-12-11T18:12:11.383Z,102364.88
2022-12-11T18:17:14.564Z,102402.97
2022-12-11T18:22:17.723Z,102386.69
2022-12-11T18:27:20.813Z,102367.69
2022-12-11T18:32:24.103Z,102372.78
2022-12-11T18:37:28.214Z,102423.66
2022-12-11T18:42:33.063Z,102416.25
2022-12-11T18:47:37.689Z,102422.22
2022-12-11T18:52:40.717Z,102425.41
2022-12-11T18:57:43.814Z,102401.38
2022-12-11T19:02:50.150Z,102405.81
2022-12-11T19:07:53.356Z,102366.03
2022-12-11T19:12:56.643Z,102401.81
2022-12-11T19:17:59.709Z,102413.13
2022-12-11T19:23:02.776Z,102431.41
2022-12-11T19:28:05.901Z,102430.75
2022-12-11T19:33:09.111Z,102405.06
2022-12-11T19:38:13.190Z,102414.91
2022-12-11T19:43:16.430Z,102421.38
2022-12-11T19:48:19.788Z,102382.41
2022-12-11T19:53:23.282Z,102414.88
2022-12-11T19:58:26.564Z,102407.00
2022-12-11T20:03:29.951Z,102442.16
2022-12-11T20:08:48.942Z,102402.53
2022-12-11T20:13:55.659Z,102419.31
2022-12-11T20:18:58.830Z,102368.75
2022-12-11T20:24:01.930Z,102429.34
2022-12-11T20:29:07.612Z,102442.44
2022-12-11T20:34:10.703Z,102424.69
2022-12-11T20:39:13.925Z,102439.88
2022-12-11T20:44:17.058Z,102441.56
2022-12-11T20:49:20.380Z,102445.03
2022-12-11T20:54:23.409Z,102410.44
2022-12-11T20:59:26.587Z,102432.91
2022-12-11T21:04:29.696Z,102426.81
2022-12-11T21:09:32.848Z,102393.44
2022-12-11T21:14:36.018Z,102428.25
2022-12-11T21:19:40.233Z,102378.34
2022-12-11T21:24:43.490Z,102434.25
2022-12-11T21:29:46.566Z,102439.97
2022-12-11T21:34:51.388Z,102436.00
2022-12-11T21:39:57.550Z,102432.00
2022-12-11T21:50:24.189Z,102404.50
2022-12-11T21:55:27.247Z,102390.09
2022-12-11T22:00:30.403Z,102420.53
2022-12-11T22:05:33.584Z,102401.25
2022-12-11T22:10:36.702Z,102411.69
2022-12-11T22:15:39.943Z,102400.69
2022-12-11T22:20:43.622Z,102417.19
2022-12-11T22:25:47.229Z,102401.63
2022-12-11T22:30:50.692Z,102398.47
2022-12-11T22:36:00.547Z,102414.00
2022-12-11T22:41:22.446Z,102382.16
2022-12-11T22:46:28.703Z,102410.66
2022-12-11T22:51:31.966Z,102415.13
2022-12-11T22:56:35.067Z,102419.56
2022-12-11T23:01:38.179Z,102405.28
2022-12-11T23:06:41.291Z,102376.94
2022-12-11T23:11:44.877Z,102404.50
2022-12-11T23:16:48.303Z,102398.59
2022-12-11T23:21:51.460Z,102365.00
2022-12-11T23:26:54.470Z,102409.31
2022-12-11T23:31:57.691Z,102388.50
2022-12-11T23:37:00.854Z,102393.44
2022-12-11T23:42:04.247Z,102369.31
2022-12-11T23:47:07.371Z,102396.63
2022-12-11T23:52:12.629Z,102392.72
2022-12-11T23:57:15.716Z,102374.03
